sensor_id;sensor_type;location;lat;lon;timestamp;P1;durP1;ratioP1;P2;durP2;ratioP2
20154;SDS011;10238;49.556;10.956;2023-07-13T00:01:39;3.00;;;2.90;;
20154;SDS011;10238;49.556;10.956;2023-07-13T00:04:27;3.90;;;3.50;;
20154;SDS011;10238;49.556;10.956;2023-07-13T00:07:18;4.22;;;3.22;;
20154;SDS011;10238;49.556;10.956;2023-07-13T00:10:06;3.35;;;3.00;;
20154;SDS011;10238;49.556;10.956;2023-07-13T00:12:55;3.60;;;3.30;;
20154;SDS011;10238;49.556;10.956;2023-07-13T00:15:43;3.50;;;3.30;;
20154;SDS011;10238;49.556;10.956;2023-07-13T00:18:32;3.78;;;3.28;;
20154;SDS011;10238;49.556;10.956;2023-07-13T00:21:20;4.18;;;3.58;;
20154;SDS011;10238;49.556;10.956;2023-07-13T00:24:09;5.10;;;3.40;;
20154;SDS011;10238;49.556;10.956;2023-07-13T00:27:01;3.90;;;3.33;;
20154;SDS011;10238;49.556;10.956;2023-07-13T00:29:49;3.10;;;2.90;;
20154;SDS011;10238;49.556;10.956;2023-07-13T00:32:37;3.47;;;2.70;;
20154;SDS011;10238;49.556;10.956;2023-07-13T00:35:29;3.45;;;2.65;;
20154;SDS011;10238;49.556;10.956;2023-07-13T00:38:17;3.10;;;2.55;;
20154;SDS011;10238;49.556;10.956;2023-07-13T00:41:06;3.45;;;2.40;;
20154;SDS011;10238;49.556;10.956;2023-07-13T00:43:54;2.92;;;2.70;;
20154;SDS011;10238;49.556;10.956;2023-07-13T00:46:43;3.78;;;2.42;;
20154;SDS011;10238;49.556;10.956;2023-07-13T00:49:33;2.55;;;2.25;;
20154;SDS011;10238;49.556;10.956;2023-07-13T00:52:25;5.53;;;2.33;;
20154;SDS011;10238;49.556;10.956;2023-07-13T00:55:14;2.38;;;2.17;;
20154;SDS011;10238;49.556;10.956;2023-07-13T00:58:04;2.25;;;2.10;;
20154;SDS011;10238;49.556;10.956;2023-07-13T01:00:53;2.83;;;2.03;;
20154;SDS011;10238;49.556;10.956;2023-07-13T01:03:41;2.72;;;2.28;;
20154;SDS011;10238;49.556;10.956;2023-07-13T01:06:29;3.28;;;2.28;;
20154;SDS011;10238;49.556;10.956;2023-07-13T01:09:19;2.42;;;2.22;;
20154;SDS011;10238;49.556;10.956;2023-07-13T01:12:07;4.20;;;2.38;;
20154;SDS011;10238;49.556;10.956;2023-07-13T01:14:56;2.70;;;2.50;;
20154;SDS011;10238;49.556;10.956;2023-07-13T01:17:46;3.78;;;2.63;;
20154;SDS011;10238;49.556;10.956;2023-07-13T01:20:33;3.95;;;2.80;;
20154;SDS011;10238;49.556;10.956;2023-07-13T01:23:24;3.25;;;2.90;;
20154;SDS011;10238;49.556;10.956;2023-07-13T01:26:14;6.40;;;3.30;;
20154;SDS011;10238;49.556;10.956;2023-07-13T01:29:02;4.15;;;3.85;;
20154;SDS011;10238;49.556;10.956;2023-07-13T01:31:49;4.68;;;4.28;;
20154;SDS011;10238;49.556;10.956;2023-07-13T01:34:37;4.97;;;4.47;;
20154;SDS011;10238;49.556;10.956;2023-07-13T01:37:28;4.43;;;4.00;;
20154;SDS011;10238;49.556;10.956;2023-07-13T01:40:20;3.35;;;3.15;;
20154;SDS011;10238;49.556;10.956;2023-07-13T01:43:09;3.45;;;3.22;;
20154;SDS011;10238;49.556;10.956;2023-07-13T01:45:57;4.45;;;3.00;;
20154;SDS011;10238;49.556;10.956;2023-07-13T01:49:01;2.90;;;2.70;;
20154;SDS011;10238;49.556;10.956;2023-07-13T01:51:49;3.25;;;2.50;;
20154;SDS011;10238;49.556;10.956;2023-07-13T01:54:37;4.40;;;4.10;;
20154;SDS011;10238;49.556;10.956;2023-07-13T01:57:26;4.18;;;3.17;;
20154;SDS011;10238;49.556;10.956;2023-07-13T02:00:14;4.85;;;4.55;;
20154;SDS011;10238;49.556;10.956;2023-07-13T02:03:03;8.30;;;7.80;;
20154;SDS011;10238;49.556;10.956;2023-07-13T02:05:51;11.85;;;11.15;;
20154;SDS011;10238;49.556;10.956;2023-07-13T02:08:39;9.52;;;8.95;;
20154;SDS011;10238;49.556;10.956;2023-07-13T02:11:28;10.07;;;9.45;;
20154;SDS011;10238;49.556;10.956;2023-07-13T02:14:19;10.40;;;9.90;;
20154;SDS011;10238;49.556;10.956;2023-07-13T02:17:08;11.30;;;10.70;;
20154;SDS011;10238;49.556;10.956;2023-07-13T02:19:57;10.45;;;9.85;;
20154;SDS011;10238;49.556;10.956;2023-07-13T02:22:44;10.15;;;9.55;;
20154;SDS011;10238;49.556;10.956;2023-07-13T02:25:32;12.38;;;11.57;;
20154;SDS011;10238;49.556;10.956;2023-07-13T02:28:20;13.07;;;12.35;;
20154;SDS011;10238;49.556;10.956;2023-07-13T02:31:10;11.77;;;10.73;;
20154;SDS011;10238;49.556;10.956;2023-07-13T02:34:01;15.07;;;14.27;;
20154;SDS011;10238;49.556;10.956;2023-07-13T02:36:50;13.27;;;12.68;;
20154;SDS011;10238;49.556;10.956;2023-07-13T02:39:38;14.43;;;13.82;;
20154;SDS011;10238;49.556;10.956;2023-07-13T02:42:27;10.30;;;9.57;;
20154;SDS011;10238;49.556;10.956;2023-07-13T02:45:14;7.72;;;7.40;;
20154;SDS011;10238;49.556;10.956;2023-07-13T02:48:04;9.38;;;8.45;;
20154;SDS011;10238;49.556;10.956;2023-07-13T02:50:52;7.70;;;7.10;;
20154;SDS011;10238;49.556;10.956;2023-07-13T02:53:39;8.95;;;8.48;;
20154;SDS011;10238;49.556;10.956;2023-07-13T02:56:30;6.18;;;5.75;;
20154;SDS011;10238;49.556;10.956;2023-07-13T02:59:19;5.70;;;5.30;;
20154;SDS011;10238;49.556;10.956;2023-07-13T03:02:07;5.90;;;5.47;;
20154;SDS011;10238;49.556;10.956;2023-07-13T03:04:57;5.93;;;5.15;;
20154;SDS011;10238;49.556;10.956;2023-07-13T03:07:45;4.93;;;4.72;;
20154;SDS011;10238;49.556;10.956;2023-07-13T03:10:33;5.60;;;5.20;;
20154;SDS011;10238;49.556;10.956;2023-07-13T03:13:21;4.57;;;4.18;;
20154;SDS011;10238;49.556;10.956;2023-07-13T03:16:09;3.67;;;3.38;;
20154;SDS011;10238;49.556;10.956;2023-07-13T03:19:01;7.63;;;3.50;;
20154;SDS011;10238;49.556;10.956;2023-07-13T03:21:50;4.35;;;2.92;;
20154;SDS011;10238;49.556;10.956;2023-07-13T03:24:38;4.47;;;2.50;;
20154;SDS011;10238;49.556;10.956;2023-07-13T03:27:27;2.90;;;2.70;;
20154;SDS011;10238;49.556;10.956;2023-07-13T03:30:15;3.10;;;2.90;;
20154;SDS011;10238;49.556;10.956;2023-07-13T03:33:02;3.00;;;2.70;;
20154;SDS011;10238;49.556;10.956;2023-07-13T03:35:53;3.03;;;2.78;;
20154;SDS011;10238;49.556;10.956;2023-07-13T03:38:42;4.60;;;3.30;;
20154;SDS011;10238;49.556;10.956;2023-07-13T03:41:30;4.78;;;3.05;;
20154;SDS011;10238;49.556;10.956;2023-07-13T03:44:18;3.13;;;2.92;;
20154;SDS011;10238;49.556;10.956;2023-07-13T03:47:06;3.30;;;3.00;;
20154;SDS011;10238;49.556;10.956;2023-07-13T03:49:54;5.47;;;2.70;;
20154;SDS011;10238;49.556;10.956;2023-07-13T03:52:42;4.63;;;2.95;;
20154;SDS011;10238;49.556;10.956;2023-07-13T03:55:32;6.93;;;2.90;;
20154;SDS011;10238;49.556;10.956;2023-07-13T03:58:24;3.65;;;3.35;;
20154;SDS011;10238;49.556;10.956;2023-07-13T04:01:17;3.05;;;2.60;;
20154;SDS011;10238;49.556;10.956;2023-07-13T04:04:07;3.60;;;2.67;;
20154;SDS011;10238;49.556;10.956;2023-07-13T04:06:55;4.10;;;2.53;;
20154;SDS011;10238;49.556;10.956;2023-07-13T04:09:44;3.65;;;2.58;;
20154;SDS011;10238;49.556;10.956;2023-07-13T04:12:33;3.95;;;2.53;;
20154;SDS011;10238;49.556;10.956;2023-07-13T04:15:20;7.45;;;2.78;;
20154;SDS011;10238;49.556;10.956;2023-07-13T04:18:08;2.67;;;2.20;;
20154;SDS011;10238;49.556;10.956;2023-07-13T04:20:55;3.78;;;2.75;;
20154;SDS011;10238;49.556;10.956;2023-07-13T04:23:43;3.17;;;2.60;;
20154;SDS011;10238;49.556;10.956;2023-07-13T04:26:31;2.83;;;2.50;;
20154;SDS011;10238;49.556;10.956;2023-07-13T04:29:23;3.28;;;2.72;;
20154;SDS011;10238;49.556;10.956;2023-07-13T04:32:11;3.55;;;2.67;;
20154;SDS011;10238;49.556;10.956;2023-07-13T04:34:59;4.78;;;2.70;;
20154;SDS011;10238;49.556;10.956;2023-07-13T04:37:47;3.75;;;2.38;;
20154;SDS011;10238;49.556;10.956;2023-07-13T04:40:36;4.50;;;2.35;;
20154;SDS011;10238;49.556;10.956;2023-07-13T04:43:24;4.45;;;2.20;;
20154;SDS011;10238;49.556;10.956;2023-07-13T04:46:15;3.17;;;2.80;;
20154;SDS011;10238;49.556;10.956;2023-07-13T04:49:05;3.83;;;2.58;;
20154;SDS011;10238;49.556;10.956;2023-07-13T04:51:52;4.07;;;3.53;;
20154;SDS011;10238;49.556;10.956;2023-07-13T04:54:40;4.07;;;3.00;;
20154;SDS011;10238;49.556;10.956;2023-07-13T04:57:28;5.25;;;3.38;;
20154;SDS011;10238;49.556;10.956;2023-07-13T05:00:16;5.95;;;3.50;;
20154;SDS011;10238;49.556;10.956;2023-07-13T05:03:05;3.85;;;3.15;;
20154;SDS011;10238;49.556;10.956;2023-07-13T05:05:56;4.25;;;3.63;;
20154;SDS011;10238;49.556;10.956;2023-07-13T05:08:45;4.65;;;3.33;;
20154;SDS011;10238;49.556;10.956;2023-07-13T05:11:33;3.35;;;3.10;;
20154;SDS011;10238;49.556;10.956;2023-07-13T05:14:21;6.55;;;4.40;;
20154;SDS011;10238;49.556;10.956;2023-07-13T05:17:09;3.88;;;3.67;;
20154;SDS011;10238;49.556;10.956;2023-07-13T05:19:58;3.50;;;3.30;;
20154;SDS011;10238;49.556;10.956;2023-07-13T05:22:46;5.43;;;3.60;;
20154;SDS011;10238;49.556;10.956;2023-07-13T05:25:34;3.75;;;3.45;;
20154;SDS011;10238;49.556;10.956;2023-07-13T05:28:22;4.97;;;4.00;;
20154;SDS011;10238;49.556;10.956;2023-07-13T05:31:10;3.63;;;3.33;;
20154;SDS011;10238;49.556;10.956;2023-07-13T05:33:58;4.40;;;4.13;;
20154;SDS011;10238;49.556;10.956;2023-07-13T05:36:47;4.50;;;4.20;;
20154;SDS011;10238;49.556;10.956;2023-07-13T05:39:35;4.57;;;4.20;;
20154;SDS011;10238;49.556;10.956;2023-07-13T05:42:23;2.92;;;2.63;;
20154;SDS011;10238;49.556;10.956;2023-07-13T05:45:10;3.33;;;2.83;;
20154;SDS011;10238;49.556;10.956;2023-07-13T05:47:58;2.65;;;2.45;;
20154;SDS011;10238;49.556;10.956;2023-07-13T05:50:46;2.72;;;2.53;;
20154;SDS011;10238;49.556;10.956;2023-07-13T05:53:36;3.50;;;2.53;;
20154;SDS011;10238;49.556;10.956;2023-07-13T05:56:24;3.05;;;2.78;;
20154;SDS011;10238;49.556;10.956;2023-07-13T05:59:12;3.85;;;2.22;;
20154;SDS011;10238;49.556;10.956;2023-07-13T06:02:00;4.10;;;2.13;;
20154;SDS011;10238;49.556;10.956;2023-07-13T06:04:48;2.78;;;2.00;;
20154;SDS011;10238;49.556;10.956;2023-07-13T06:07:37;3.10;;;2.20;;
20154;SDS011;10238;49.556;10.956;2023-07-13T06:10:27;2.38;;;2.17;;
20154;SDS011;10238;49.556;10.956;2023-07-13T06:13:15;7.07;;;2.83;;
20154;SDS011;10238;49.556;10.956;2023-07-13T06:16:05;5.93;;;2.53;;
20154;SDS011;10238;49.556;10.956;2023-07-13T06:18:54;3.83;;;2.30;;
20154;SDS011;10238;49.556;10.956;2023-07-13T06:21:42;3.05;;;2.70;;
20154;SDS011;10238;49.556;10.956;2023-07-13T06:24:30;3.75;;;2.30;;
20154;SDS011;10238;49.556;10.956;2023-07-13T06:27:19;4.90;;;2.35;;
20154;SDS011;10238;49.556;10.956;2023-07-13T06:30:07;4.68;;;2.13;;
20154;SDS011;10238;49.556;10.956;2023-07-13T06:32:56;3.05;;;2.40;;
20154;SDS011;10238;49.556;10.956;2023-07-13T06:35:44;4.22;;;3.88;;
20154;SDS011;10238;49.556;10.956;2023-07-13T06:38:31;3.83;;;3.63;;
20154;SDS011;10238;49.556;10.956;2023-07-13T06:41:19;3.92;;;3.58;;
20154;SDS011;10238;49.556;10.956;2023-07-13T06:44:09;7.15;;;6.57;;
20154;SDS011;10238;49.556;10.956;2023-07-13T06:46:57;6.32;;;5.80;;
20154;SDS011;10238;49.556;10.956;2023-07-13T06:49:45;5.47;;;2.70;;
20154;SDS011;10238;49.556;10.956;2023-07-13T06:52:33;4.05;;;2.20;;
20154;SDS011;10238;49.556;10.956;2023-07-13T06:55:21;2.58;;;2.17;;
20154;SDS011;10238;49.556;10.956;2023-07-13T06:58:09;4.05;;;2.58;;
20154;SDS011;10238;49.556;10.956;2023-07-13T07:00:58;2.33;;;2.13;;
20154;SDS011;10238;49.556;10.956;2023-07-13T07:03:46;3.83;;;2.78;;
20154;SDS011;10238;49.556;10.956;2023-07-13T07:06:34;7.72;;;3.22;;
20154;SDS011;10238;49.556;10.956;2023-07-13T07:09:23;8.40;;;2.80;;
20154;SDS011;10238;49.556;10.956;2023-07-13T07:12:15;3.45;;;2.35;;
20154;SDS011;10238;49.556;10.956;2023-07-13T07:15:03;7.53;;;2.90;;
20154;SDS011;10238;49.556;10.956;2023-07-13T07:17:53;2.40;;;2.20;;
20154;SDS011;10238;49.556;10.956;2023-07-13T07:20:41;3.58;;;1.77;;
20154;SDS011;10238;49.556;10.956;2023-07-13T07:23:29;4.15;;;2.47;;
20154;SDS011;10238;49.556;10.956;2023-07-13T07:26:16;2.85;;;2.58;;
20154;SDS011;10238;49.556;10.956;2023-07-13T07:29:04;4.82;;;2.10;;
20154;SDS011;10238;49.556;10.956;2023-07-13T07:31:55;2.75;;;2.17;;
20154;SDS011;10238;49.556;10.956;2023-07-13T07:34:51;6.35;;;4.80;;
20154;SDS011;10238;49.556;10.956;2023-07-13T07:37:39;4.88;;;3.47;;
20154;SDS011;10238;49.556;10.956;2023-07-13T07:40:30;3.83;;;3.63;;
20154;SDS011;10238;49.556;10.956;2023-07-13T07:43:21;6.32;;;4.68;;
20154;SDS011;10238;49.556;10.956;2023-07-13T07:46:09;4.28;;;3.95;;
20154;SDS011;10238;49.556;10.956;2023-07-13T07:48:57;5.68;;;5.18;;
20154;SDS011;10238;49.556;10.956;2023-07-13T07:51:45;8.07;;;5.95;;
20154;SDS011;10238;49.556;10.956;2023-07-13T07:54:33;10.25;;;9.40;;
20154;SDS011;10238;49.556;10.956;2023-07-13T07:57:24;8.18;;;7.68;;
20154;SDS011;10238;49.556;10.956;2023-07-13T08:00:15;6.15;;;5.65;;
20154;SDS011;10238;49.556;10.956;2023-07-13T08:03:06;3.03;;;2.72;;
20154;SDS011;10238;49.556;10.956;2023-07-13T08:05:57;2.83;;;2.30;;
20154;SDS011;10238;49.556;10.956;2023-07-13T08:09:06;3.47;;;2.40;;
20154;SDS011;10238;49.556;10.956;2023-07-13T08:11:54;4.38;;;2.50;;
20154;SDS011;10238;49.556;10.956;2023-07-13T08:14:44;4.90;;;2.55;;
20154;SDS011;10238;49.556;10.956;2023-07-13T08:17:39;3.28;;;2.63;;
20154;SDS011;10238;49.556;10.956;2023-07-13T08:20:26;4.25;;;2.20;;
20154;SDS011;10238;49.556;10.956;2023-07-13T08:23:14;2.47;;;2.00;;
20154;SDS011;10238;49.556;10.956;2023-07-13T08:26:03;2.58;;;1.73;;
20154;SDS011;10238;49.556;10.956;2023-07-13T08:28:51;2.78;;;1.55;;
20154;SDS011;10238;49.556;10.956;2023-07-13T08:31:39;1.63;;;1.40;;
20154;SDS011;10238;49.556;10.956;2023-07-13T08:34:27;3.13;;;1.30;;
20154;SDS011;10238;49.556;10.956;2023-07-13T08:37:14;4.80;;;1.63;;
20154;SDS011;10238;49.556;10.956;2023-07-13T08:40:03;1.95;;;1.55;;
20154;SDS011;10238;49.556;10.956;2023-07-13T08:42:57;1.52;;;1.42;;
20154;SDS011;10238;49.556;10.956;2023-07-13T08:45:46;4.18;;;1.50;;
20154;SDS011;10238;49.556;10.956;2023-07-13T08:48:41;1.80;;;1.70;;
20154;SDS011;10238;49.556;10.956;2023-07-13T08:51:35;1.48;;;1.35;;
20154;SDS011;10238;49.556;10.956;2023-07-13T08:54:32;2.45;;;1.50;;
20154;SDS011;10238;49.556;10.956;2023-07-13T08:57:24;1.73;;;1.63;;
20154;SDS011;10238;49.556;10.956;2023-07-13T09:00:23;4.05;;;1.52;;
20154;SDS011;10238;49.556;10.956;2023-07-13T09:03:22;2.55;;;1.45;;
20154;SDS011;10238;49.556;10.956;2023-07-13T09:06:17;4.18;;;1.70;;
20154;SDS011;10238;49.556;10.956;2023-07-13T09:09:12;3.40;;;1.58;;
20154;SDS011;10238;49.556;10.956;2023-07-13T09:12:13;3.70;;;1.20;;
20154;SDS011;10238;49.556;10.956;2023-07-13T09:15:24;3.58;;;1.48;;
20154;SDS011;10238;49.556;10.956;2023-07-13T09:18:19;1.70;;;1.60;;
20154;SDS011;10238;49.556;10.956;2023-07-13T09:21:13;2.22;;;2.00;;
20154;SDS011;10238;49.556;10.956;2023-07-13T09:27:17;3.97;;;2.17;;
20154;SDS011;10238;49.556;10.956;2023-07-13T09:30:17;2.53;;;2.17;;
20154;SDS011;10238;49.556;10.956;2023-07-13T09:33:13;3.45;;;2.20;;
20154;SDS011;10238;49.556;10.956;2023-07-13T09:36:01;5.38;;;2.17;;
20154;SDS011;10238;49.556;10.956;2023-07-13T09:39:04;1.90;;;1.80;;
20154;SDS011;10238;49.556;10.956;2023-07-13T09:42:00;5.10;;;2.40;;
20154;SDS011;10238;49.556;10.956;2023-07-13T09:44:59;8.00;;;2.65;;
20154;SDS011;10238;49.556;10.956;2023-07-13T09:47:49;5.50;;;2.58;;
20154;SDS011;10238;49.556;10.956;2023-07-13T09:50:47;2.20;;;2.10;;
20154;SDS011;10238;49.556;10.956;2023-07-13T09:53:36;2.88;;;2.53;;
20154;SDS011;10238;49.556;10.956;2023-07-13T09:56:26;2.67;;;2.10;;
20154;SDS011;10238;49.556;10.956;2023-07-13T09:59:19;3.53;;;2.28;;
20154;SDS011;10238;49.556;10.956;2023-07-13T10:02:22;4.80;;;2.60;;
20154;SDS011;10238;49.556;10.956;2023-07-13T10:05:13;2.63;;;1.85;;
20154;SDS011;10238;49.556;10.956;2023-07-13T10:08:03;2.05;;;1.95;;
20154;SDS011;10238;49.556;10.956;2023-07-13T10:10:53;2.33;;;2.20;;
20154;SDS011;10238;49.556;10.956;2023-07-13T10:13:54;3.78;;;1.90;;
20154;SDS011;10238;49.556;10.956;2023-07-13T10:16:43;3.05;;;1.80;;
20154;SDS011;10238;49.556;10.956;2023-07-13T10:19:32;4.30;;;2.00;;
20154;SDS011;10238;49.556;10.956;2023-07-13T10:22:23;2.80;;;1.48;;
20154;SDS011;10238;49.556;10.956;2023-07-13T10:25:19;2.80;;;1.70;;
20154;SDS011;10238;49.556;10.956;2023-07-13T10:28:11;2.90;;;2.03;;
20154;SDS011;10238;49.556;10.956;2023-07-13T10:31:11;1.75;;;1.65;;
20154;SDS011;10238;49.556;10.956;2023-07-13T10:36:51;3.58;;;2.30;;
20154;SDS011;10238;49.556;10.956;2023-07-13T10:39:39;2.67;;;1.80;;
20154;SDS011;10238;49.556;10.956;2023-07-13T10:42:30;3.17;;;1.90;;
20154;SDS011;10238;49.556;10.956;2023-07-13T10:45:22;2.10;;;1.90;;
20154;SDS011;10238;49.556;10.956;2023-07-13T10:48:11;2.78;;;2.45;;
20154;SDS011;10238;49.556;10.956;2023-07-13T10:51:01;2.00;;;1.77;;
20154;SDS011;10238;49.556;10.956;2023-07-13T10:57:16;2.03;;;1.55;;
20154;SDS011;10238;49.556;10.956;2023-07-13T11:00:15;2.42;;;1.48;;
20154;SDS011;10238;49.556;10.956;2023-07-13T11:03:10;2.80;;;1.45;;
20154;SDS011;10238;49.556;10.956;2023-07-13T11:06:10;1.70;;;1.60;;
20154;SDS011;10238;49.556;10.956;2023-07-13T11:09:17;2.88;;;1.80;;
20154;SDS011;10238;49.556;10.956;2023-07-13T11:12:28;1.95;;;1.60;;
20154;SDS011;10238;49.556;10.956;2023-07-13T11:15:44;4.13;;;1.77;;
20154;SDS011;10238;49.556;10.956;2023-07-13T11:18:34;4.07;;;2.20;;
20154;SDS011;10238;49.556;10.956;2023-07-13T11:21:23;2.58;;;1.80;;
20154;SDS011;10238;49.556;10.956;2023-07-13T11:24:17;2.45;;;1.50;;
20154;SDS011;10238;49.556;10.956;2023-07-13T11:27:14;3.60;;;1.67;;
20154;SDS011;10238;49.556;10.956;2023-07-13T11:30:23;2.88;;;1.58;;
20154;SDS011;10238;49.556;10.956;2023-07-13T11:33:20;2.00;;;1.70;;
20154;SDS011;10238;49.556;10.956;2023-07-13T11:36:12;2.38;;;1.48;;
20154;SDS011;10238;49.556;10.956;2023-07-13T11:39:03;2.95;;;2.10;;
20154;SDS011;10238;49.556;10.956;2023-07-13T11:42:00;3.00;;;1.55;;
20154;SDS011;10238;49.556;10.956;2023-07-13T11:44:50;1.90;;;1.67;;
20154;SDS011;10238;49.556;10.956;2023-07-13T11:47:55;2.50;;;1.50;;
20154;SDS011;10238;49.556;10.956;2023-07-13T11:50:50;3.25;;;1.40;;
20154;SDS011;10238;49.556;10.956;2023-07-13T11:53:44;2.28;;;1.55;;
20154;SDS011;10238;49.556;10.956;2023-07-13T11:56:33;2.20;;;1.48;;
20154;SDS011;10238;49.556;10.956;2023-07-13T11:59:23;2.63;;;1.92;;
20154;SDS011;10238;49.556;10.956;2023-07-13T12:02:13;5.28;;;2.13;;
20154;SDS011;10238;49.556;10.956;2023-07-13T12:05:04;4.47;;;1.80;;
20154;SDS011;10238;49.556;10.956;2023-07-13T12:07:59;6.40;;;2.13;;
20154;SDS011;10238;49.556;10.956;2023-07-13T12:10:56;3.40;;;1.77;;
20154;SDS011;10238;49.556;10.956;2023-07-13T12:13:46;4.68;;;2.42;;
20154;SDS011;10238;49.556;10.956;2023-07-13T12:16:34;4.22;;;2.42;;
20154;SDS011;10238;49.556;10.956;2023-07-13T12:19:23;3.80;;;2.80;;
20154;SDS011;10238;49.556;10.956;2023-07-13T12:22:14;3.38;;;2.97;;
20154;SDS011;10238;49.556;10.956;2023-07-13T12:25:08;2.50;;;2.30;;
20154;SDS011;10238;49.556;10.956;2023-07-13T12:27:59;6.32;;;2.53;;
20154;SDS011;10238;49.556;10.956;2023-07-13T12:31:07;3.65;;;3.22;;
20154;SDS011;10238;49.556;10.956;2023-07-13T12:34:10;4.65;;;3.33;;
20154;SDS011;10238;49.556;10.956;2023-07-13T12:37:03;3.40;;;2.90;;
20154;SDS011;10238;49.556;10.956;2023-07-13T12:39:57;3.65;;;2.67;;
20154;SDS011;10238;49.556;10.956;2023-07-13T12:42:47;3.13;;;2.70;;
20154;SDS011;10238;49.556;10.956;2023-07-13T12:45:36;2.90;;;2.70;;
20154;SDS011;10238;49.556;10.956;2023-07-13T12:48:24;4.20;;;2.92;;
20154;SDS011;10238;49.556;10.956;2023-07-13T12:51:26;3.77;;;2.20;;
20154;SDS011;10238;49.556;10.956;2023-07-13T12:54:16;3.42;;;2.47;;
20154;SDS011;10238;49.556;10.956;2023-07-13T12:57:07;3.97;;;2.33;;
20154;SDS011;10238;49.556;10.956;2023-07-13T13:00:06;3.80;;;2.40;;
20154;SDS011;10238;49.556;10.956;2023-07-13T13:03:12;3.75;;;2.30;;
20154;SDS011;10238;49.556;10.956;2023-07-13T13:06:20;7.75;;;2.17;;
20154;SDS011;10238;49.556;10.956;2023-07-13T13:12:00;3.08;;;2.33;;
20154;SDS011;10238;49.556;10.956;2023-07-13T13:14:48;2.45;;;2.00;;
20154;SDS011;10238;49.556;10.956;2023-07-13T13:17:39;3.95;;;2.05;;
20154;SDS011;10238;49.556;10.956;2023-07-13T13:20:27;4.18;;;1.70;;
20154;SDS011;10238;49.556;10.956;2023-07-13T13:23:17;7.10;;;2.40;;
20154;SDS011;10238;49.556;10.956;2023-07-13T13:26:08;4.00;;;1.90;;
20154;SDS011;10238;49.556;10.956;2023-07-13T13:29:32;2.78;;;2.40;;
20154;SDS011;10238;49.556;10.956;2023-07-13T13:32:22;2.65;;;2.45;;
20154;SDS011;10238;49.556;10.956;2023-07-13T13:35:13;2.10;;;1.88;;
20154;SDS011;10238;49.556;10.956;2023-07-13T13:38:04;5.13;;;2.33;;
20154;SDS011;10238;49.556;10.956;2023-07-13T13:40:57;2.63;;;2.38;;
20154;SDS011;10238;49.556;10.956;2023-07-13T13:43:45;3.67;;;1.80;;
20154;SDS011;10238;49.556;10.956;2023-07-13T13:46:34;3.58;;;2.00;;
20154;SDS011;10238;49.556;10.956;2023-07-13T13:49:22;3.08;;;2.30;;
20154;SDS011;10238;49.556;10.956;2023-07-13T13:52:16;2.92;;;2.42;;
20154;SDS011;10238;49.556;10.956;2023-07-13T13:55:10;2.40;;;2.20;;
20154;SDS011;10238;49.556;10.956;2023-07-13T13:58:00;3.10;;;2.20;;
20154;SDS011;10238;49.556;10.956;2023-07-13T14:00:49;4.25;;;2.58;;
20154;SDS011;10238;49.556;10.956;2023-07-13T14:03:38;2.05;;;1.90;;
20154;SDS011;10238;49.556;10.956;2023-07-13T14:06:26;3.25;;;1.95;;
20154;SDS011;10238;49.556;10.956;2023-07-13T14:09:16;3.28;;;1.52;;
20154;SDS011;10238;49.556;10.956;2023-07-13T14:12:08;2.83;;;1.50;;
20154;SDS011;10238;49.556;10.956;2023-07-13T14:14:58;4.60;;;1.35;;
20154;SDS011;10238;49.556;10.956;2023-07-13T14:17:46;2.92;;;1.75;;
20154;SDS011;10238;49.556;10.956;2023-07-13T14:20:36;3.92;;;2.35;;
20154;SDS011;10238;49.556;10.956;2023-07-13T14:23:24;3.05;;;1.77;;
20154;SDS011;10238;49.556;10.956;2023-07-13T14:26:14;5.57;;;2.15;;
20154;SDS011;10238;49.556;10.956;2023-07-13T14:29:04;4.97;;;2.00;;
20154;SDS011;10238;49.556;10.956;2023-07-13T14:31:58;4.68;;;1.80;;
20154;SDS011;10238;49.556;10.956;2023-07-13T14:34:46;5.70;;;2.13;;
20154;SDS011;10238;49.556;10.956;2023-07-13T14:37:34;4.15;;;1.80;;
20154;SDS011;10238;49.556;10.956;2023-07-13T14:40:24;2.50;;;1.55;;
20154;SDS011;10238;49.556;10.956;2023-07-13T14:43:17;3.50;;;1.70;;
20154;SDS011;10238;49.556;10.956;2023-07-13T14:46:04;2.40;;;1.58;;
20154;SDS011;10238;49.556;10.956;2023-07-13T14:49:03;4.18;;;1.73;;
20154;SDS011;10238;49.556;10.956;2023-07-13T14:51:54;3.42;;;1.42;;
20154;SDS011;10238;49.556;10.956;2023-07-13T14:54:44;3.88;;;1.70;;
20154;SDS011;10238;49.556;10.956;2023-07-13T14:57:32;1.90;;;1.58;;
20154;SDS011;10238;49.556;10.956;2023-07-13T15:00:21;3.17;;;1.90;;
20154;SDS011;10238;49.556;10.956;2023-07-13T15:03:14;2.03;;;1.70;;
20154;SDS011;10238;49.556;10.956;2023-07-13T15:06:09;3.58;;;1.73;;
20154;SDS011;10238;49.556;10.956;2023-07-13T15:08:58;5.00;;;2.65;;
20154;SDS011;10238;49.556;10.956;2023-07-13T15:11:49;2.60;;;2.40;;
20154;SDS011;10238;49.556;10.956;2023-07-13T15:14:37;2.30;;;2.08;;
20154;SDS011;10238;49.556;10.956;2023-07-13T15:17:28;3.47;;;1.80;;
20154;SDS011;10238;49.556;10.956;2023-07-13T15:20:25;4.07;;;1.80;;
20154;SDS011;10238;49.556;10.956;2023-07-13T15:23:18;2.53;;;2.00;;
20154;SDS011;10238;49.556;10.956;2023-07-13T15:26:07;5.63;;;1.80;;
20154;SDS011;10238;49.556;10.956;2023-07-13T15:29:00;3.65;;;1.80;;
20154;SDS011;10238;49.556;10.956;2023-07-13T15:31:48;3.35;;;2.47;;
20154;SDS011;10238;49.556;10.956;2023-07-13T15:34:37;2.97;;;2.00;;
20154;SDS011;10238;49.556;10.956;2023-07-13T15:37:25;5.95;;;1.98;;
20154;SDS011;10238;49.556;10.956;2023-07-13T15:40:12;3.10;;;1.60;;
20154;SDS011;10238;49.556;10.956;2023-07-13T15:43:04;2.13;;;1.67;;
20154;SDS011;10238;49.556;10.956;2023-07-13T15:45:58;2.90;;;1.75;;
20154;SDS011;10238;49.556;10.956;2023-07-13T15:48:47;3.60;;;2.00;;
20154;SDS011;10238;49.556;10.956;2023-07-13T15:51:36;4.78;;;2.15;;
20154;SDS011;10238;49.556;10.956;2023-07-13T15:54:24;4.72;;;1.70;;
20154;SDS011;10238;49.556;10.956;2023-07-13T15:57:12;3.90;;;1.95;;
20154;SDS011;10238;49.556;10.956;2023-07-13T16:00:00;3.22;;;1.70;;
20154;SDS011;10238;49.556;10.956;2023-07-13T16:02:51;3.28;;;1.80;;
20154;SDS011;10238;49.556;10.956;2023-07-13T16:05:40;1.65;;;1.52;;
20154;SDS011;10238;49.556;10.956;2023-07-13T16:08:30;3.30;;;1.60;;
20154;SDS011;10238;49.556;10.956;2023-07-13T16:11:20;4.60;;;2.80;;
20154;SDS011;10238;49.556;10.956;2023-07-13T16:14:09;1.50;;;1.40;;
20154;SDS011;10238;49.556;10.956;2023-07-13T16:17:02;2.95;;;1.90;;
20154;SDS011;10238;49.556;10.956;2023-07-13T16:19:51;2.30;;;1.67;;
20154;SDS011;10238;49.556;10.956;2023-07-13T16:22:42;2.13;;;1.55;;
20154;SDS011;10238;49.556;10.956;2023-07-13T16:25:34;4.63;;;1.83;;
20154;SDS011;10238;49.556;10.956;2023-07-13T16:28:22;2.67;;;1.60;;
20154;SDS011;10238;49.556;10.956;2023-07-13T16:31:10;4.00;;;1.83;;
20154;SDS011;10238;49.556;10.956;2023-07-13T16:33:59;4.40;;;1.67;;
20154;SDS011;10238;49.556;10.956;2023-07-13T16:36:47;3.95;;;1.65;;
20154;SDS011;10238;49.556;10.956;2023-07-13T16:39:35;4.10;;;1.80;;
20154;SDS011;10238;49.556;10.956;2023-07-13T16:42:25;2.38;;;1.70;;
20154;SDS011;10238;49.556;10.956;2023-07-13T16:45:14;2.40;;;1.88;;
20154;SDS011;10238;49.556;10.956;2023-07-13T16:48:05;2.70;;;2.20;;
20154;SDS011;10238;49.556;10.956;2023-07-13T16:50:59;2.25;;;2.05;;
20154;SDS011;10238;49.556;10.956;2023-07-13T16:53:50;9.07;;;2.42;;
20154;SDS011;10238;49.556;10.956;2023-07-13T16:56:38;3.08;;;2.30;;
20154;SDS011;10238;49.556;10.956;2023-07-13T16:59:29;6.63;;;2.38;;
20154;SDS011;10238;49.556;10.956;2023-07-13T17:02:28;3.35;;;1.88;;
20154;SDS011;10238;49.556;10.956;2023-07-13T17:05:20;3.05;;;2.00;;